Time;durP1;ratioP1;P1;durP2;ratioP2;P2;SDS_P1;SDS_P2;PMS_P1;PMS_P2;Temp;Humidity;BMP_temperature;BMP_pressure;BME280_temperature;BME280_humidity;BME280_pressure;Samples;Min_cycle;Max_cycle;Signal;HPM_P1;HPM_P2
2024/01/08 00:00:05;;;;;;;8.50;4.30;;;10.70;99.90;;;10.73;74.90;93433.09;5011827;28;20955;-64
2024/01/08 00:02:32;;;;;;;6.83;3.30;;;10.70;99.90;;;10.75;74.63;93433.72;5011836;28;20872;-65
2024/01/08 00:04:59;;;;;;;4.47;2.90;;;10.70;99.90;;;10.75;74.57;93433.72;5011706;28;20485;-64
2024/01/08 00:07:27;;;;;;;3.43;3.13;;;10.70;99.90;;;10.76;74.36;93443.25;5011707;28;20493;-66
2024/01/08 00:09:54;;;;;;;2.67;2.37;;;10.70;99.90;;;10.75;74.66;93442.44;5011957;28;20480;-59
2024/01/08 00:12:23;;;;;;;2.30;2.13;;;10.70;99.90;;;10.76;74.38;93443.25;5012134;28;20457;-61
2024/01/08 00:14:50;;;;;;;2.60;2.40;;;10.70;99.90;;;10.77;74.55;93450.97;5012297;28;20983;-65
2024/01/08 00:17:18;;;;;;;4.87;2.77;;;10.70;99.90;;;10.76;74.56;93444.06;5012267;28;20539;-65
2024/01/08 00:19:45;;;;;;;2.63;2.43;;;10.70;99.90;;;10.75;74.69;93442.44;5011963;28;20457;-64
2024/01/08 00:22:13;;;;;;;5.27;2.60;;;10.70;99.90;;;10.76;74.95;93451.13;5011493;28;20508;-61
2024/01/08 00:24:40;;;;;;;2.60;2.40;;;10.70;99.90;;;10.77;74.58;93458.03;5011836;28;20457;-61
2024/01/08 00:27:07;;;;;;;3.83;2.90;;;10.70;99.90;;;10.76;74.67;93459.84;5011337;28;20489;-62
2024/01/08 00:29:37;;;;;;;4.07;2.70;;;10.70;99.90;;;10.77;74.53;93461.47;5011327;28;20465;-66
2024/01/08 00:32:05;;;;;;;7.10;2.60;;;10.70;99.90;;;10.76;74.16;93457.22;5011559;28;20454;-66
2024/01/08 00:34:32;;;;;;;4.20;2.40;;;10.70;99.90;;;10.79;74.27;93449.97;5011219;28;20446;-62
2024/01/08 00:37:00;;;;;;;2.60;2.17;;;10.70;99.90;;;10.76;74.44;93459.84;5011841;28;20462;-68
2024/01/08 00:39:27;;;;;;;3.90;2.30;;;10.70;99.90;;;10.77;74.54;93465.94;5011214;28;20553;-62
2024/01/08 00:41:54;;;;;;;3.70;2.40;;;10.70;99.90;;;10.75;74.02;93470.53;5011559;28;20472;-60
2024/01/08 00:44:21;;;;;;;2.00;1.87;;;10.70;99.90;;;10.74;74.51;93468.91;5012680;28;20453;-65
2024/01/08 00:46:50;;;;;;;1.83;1.40;;;10.70;99.90;;;10.70;74.22;93471.06;5014456;28;20864;-62
2024/01/08 00:49:17;;;;;;;3.43;2.10;;;10.70;99.90;;;10.68;74.47;93466.97;5011952;28;20449;-61
2024/01/08 00:51:45;;;;;;;2.40;1.57;;;10.60;99.90;;;10.67;74.32;93478.50;5011856;28;20493;-67
2024/01/08 00:54:12;;;;;;;2.50;2.30;;;10.60;99.90;;;10.63;74.46;93477.19;5011448;28;20485;-62
2024/01/08 00:56:40;;;;;;;4.03;2.07;;;10.60;99.90;;;10.64;74.30;93484.91;5011216;28;20480;-62
2024/01/08 00:59:07;;;;;;;4.37;3.23;;;10.60;99.90;;;10.64;74.59;93487.53;5010835;28;20961;-66
2024/01/08 01:01:34;;;;;;;2.77;2.60;;;10.60;99.90;;;10.64;74.41;93484.09;5010659;28;20473;-61
2024/01/08 01:04:03;;;;;;;3.17;2.87;;;10.60;99.90;;;10.62;74.35;93489.53;5011014;28;20457;-65
2024/01/08 01:06:31;;;;;;;4.50;4.10;;;10.60;99.90;;;10.60;74.20;93483.63;5010707;28;20497;-60
2024/01/08 01:08:58;;;;;;;5.00;4.50;;;10.60;99.90;;;10.56;74.19;93488.41;5010623;28;20469;-61
2024/01/08 01:11:25;;;;;;;5.40;4.17;;;10.50;99.90;;;10.54;74.45;93490.41;5010512;28;21001;-64
2024/01/08 01:13:52;;;;;;;5.97;4.50;;;10.50;99.90;;;10.52;74.55;93488.94;5010466;28;20981;-65
2024/01/08 01:16:20;;;;;;;4.43;4.00;;;10.50;99.90;;;10.50;74.27;93488.28;5010727;28;20843;-65
2024/01/08 01:18:48;;;;;;;6.30;5.63;;;10.50;99.90;;;10.48;74.26;93492.91;5010879;28;20458;-65
2024/01/08 01:21:21;;;;;;;6.50;5.90;;;10.40;99.90;;;10.45;74.14;93491.44;5010841;28;20473;-65
2024/01/08 01:23:48;;;;;;;5.77;5.10;;;10.40;99.90;;;10.43;74.08;93488.16;5010478;28;20541;-61
2024/01/08 01:26:16;;;;;;;7.97;6.20;;;10.40;99.90;;;10.38;74.00;93486.06;5010266;28;20484;-65
2024/01/08 01:28:43;;;;;;;7.40;5.20;;;10.40;99.90;;;10.39;73.94;93502.63;5010461;28;20473;-64
2024/01/08 01:31:11;;;;;;;6.70;5.50;;;10.40;99.90;;;10.35;73.85;93502.19;5010581;28;20474;-65
2024/01/08 01:33:38;;;;;;;6.63;5.60;;;10.30;99.90;;;10.32;73.59;93504.31;5010657;28;20523;-62
2024/01/08 01:36:07;;;;;;;6.80;5.40;;;10.30;99.90;;;10.27;73.66;93504.81;5010613;28;20486;-62
2024/01/08 01:38:35;;;;;;;8.30;6.13;;;10.20;99.90;;;10.22;73.69;93501.88;5010554;28;20469;-66
2024/01/08 01:41:02;;;;;;;6.57;5.83;;;10.20;99.90;;;10.19;74.01;93505.69;5010332;28;20492;-61
2024/01/08 01:43:30;;;;;;;6.00;5.40;;;10.20;99.90;;;10.16;73.70;93507.81;5010248;28;20838;-65
2024/01/08 01:46:01;;;;;;;5.83;5.33;;;10.10;99.90;;;10.12;73.95;93506.53;5010229;28;21025;-61
2024/01/08 01:48:28;;;;;;;8.43;5.97;;;10.10;99.90;;;10.08;73.98;93506.03;5010104;28;20493;-62
2024/01/08 01:50:56;;;;;;;8.07;5.50;;;10.10;99.90;;;10.06;74.05;93502.78;5010176;28;20504;-60
2024/01/08 01:53:23;;;;;;;6.70;6.10;;;10.00;99.90;;;10.05;74.14;93512.47;5010068;28;20460;-61
2024/01/08 01:55:52;;;;;;;6.13;5.33;;;10.00;99.90;;;10.02;74.09;93511.97;5010566;28;20946;-60
2024/01/08 01:58:19;;;;;;;5.40;4.90;;;10.00;99.90;;;9.98;74.24;93505.44;5011508;28;20476;-66
2024/01/08 02:00:46;;;;;;;6.80;6.10;;;10.00;99.90;;;9.96;74.25;93512.66;5011022;28;20469;-60
2024/01/08 02:03:14;;;;;;;7.60;5.70;;;9.90;99.90;;;9.96;74.21;93512.66;5010093;28;20858;-65
2024/01/08 02:05:41;;;;;;;5.57;4.93;;;9.90;99.90;;;9.97;74.09;93509.84;5010147;28;20477;-65
2024/01/08 02:08:08;;;;;;;5.37;4.93;;;9.90;99.90;;;9.96;74.14;93518.75;5009895;28;20499;-62
2024/01/08 02:10:39;;;;;;;6.63;4.90;;;9.90;99.90;;;9.95;74.10;93514.47;5010028;28;20513;-65
2024/01/08 02:13:08;;;;;;;4.50;4.20;;;9.90;99.90;;;9.95;73.97;93522.34;5009488;28;20438;-64
2024/01/08 02:15:36;;;;;;;5.50;4.63;;;9.90;99.90;;;9.94;73.97;93522.50;5010090;28;20544;-64
2024/01/08 02:18:03;;;;;;;6.83;4.57;;;9.90;99.90;;;9.93;74.23;93524.31;5010111;28;20865;-60
2024/01/08 02:20:31;;;;;;;6.83;4.93;;;9.90;99.90;;;9.93;73.99;93531.38;5009741;28;21127;-61
2024/01/08 02:22:59;;;;;;;7.47;4.67;;;9.90;99.90;;;9.94;74.12;93536.44;5009558;28;20464;-65
2024/01/08 02:25:27;;;;;;;5.10;4.60;;;9.90;99.90;;;9.94;74.03;93533.81;5009926;28;20465;-65
2024/01/08 02:27:54;;;;;;;5.03;4.53;;;9.90;99.90;;;9.95;73.92;93532.03;5009800;28;20528;-65
2024/01/08 02:30:22;;;;;;;4.13;3.83;;;9.90;99.90;;;9.95;73.89;93535.47;5009859;28;20484;-65
2024/01/08 02:32:49;;;;;;;4.37;4.07;;;9.90;99.90;;;9.94;74.07;93530.38;5009912;28;20464;-60
2024/01/08 02:35:16;;;;;;;3.90;3.60;;;9.90;99.90;;;9.92;73.80;93532.38;5010044;28;20482;-61
2024/01/08 02:37:43;;;;;;;4.00;3.63;;;9.90;99.90;;;9.89;73.72;93538.78;5009901;28;20461;-61
2024/01/08 02:40:13;;;;;;;3.93;3.57;;;9.90;99.90;;;9.89;73.98;93536.16;5009975;28;20477;-62
2024/01/08 02:42:41;;;;;;;6.13;3.47;;;9.90;99.90;;;9.87;74.07;93546.00;5009908;28;20457;-64
2024/01/08 02:45:09;;;;;;;4.37;4.07;;;9.90;99.90;;;9.86;73.89;93545.16;5010153;28;20552;-60
2024/01/08 02:47:40;;;;;;;3.80;3.53;;;9.90;99.90;;;9.85;74.08;93548.81;5009995;28;20501;-65
2024/01/08 02:50:08;;;;;;;3.87;3.57;;;9.80;99.90;;;9.86;74.00;93552.25;5009433;28;20484;-65
2024/01/08 02:52:35;;;;;;;3.83;3.53;;;9.80;99.90;;;9.84;73.94;93551.59;5009706;28;20457;-62
2024/01/08 02:55:03;;;;;;;4.40;3.97;;;9.80;99.90;;;9.84;73.80;93552.41;5009776;28;20473;-60
2024/01/08 02:57:33;;;;;;;5.00;3.73;;;9.80;99.90;;;9.85;74.00;93547.97;5009977;28;20457;-64
2024/01/08 03:00:03;;;;;;;3.50;3.30;;;9.80;99.90;;;9.86;73.95;93562.75;5009279;28;20477;-61
2024/01/08 03:02:31;;;;;;;4.40;3.67;;;9.80;99.90;;;9.87;73.90;93561.78;5005413;28;20452;-61
2024/01/08 03:04:58;;;;;;;3.67;3.30;;;9.80;99.90;;;9.86;73.93;93562.75;5012984;28;20514;-61
2024/01/08 03:07:25;;;;;;;3.60;3.40;;;9.80;99.90;;;9.86;73.90;93570.63;5011981;28;20493;-64
2024/01/08 03:09:56;;;;;;;5.17;3.50;;;9.80;99.90;;;9.86;73.88;93560.94;5009567;28;20474;-65
2024/01/08 03:12:24;;;;;;;2.93;2.73;;;9.80;99.90;;;9.86;73.63;93575.88;5005753;28;20966;-65
2024/01/08 03:14:52;;;;;;;4.10;3.80;;;9.80;99.90;;;9.86;73.37;93576.69;5009295;28;20477;-66
2024/01/08 03:17:20;;;;;;;4.77;4.27;;;9.80;99.90;;;9.85;73.42;93579.47;5009437;28;20480;-61
2024/01/08 03:19:47;;;;;;;3.60;3.40;;;9.80;99.90;;;9.86;73.65;93575.88;5009151;28;20518;-60
2024/01/08 03:22:14;;;;;;;3.70;3.50;;;9.80;99.90;;;9.85;73.64;93584.72;5009212;28;20461;-64
2024/01/08 03:24:42;;;;;;;5.97;4.30;;;9.80;99.90;;;9.86;73.77;93583.75;5008371;28;20465;-65
2024/01/08 03:27:09;;;;;;;5.70;4.10;;;9.80;99.90;;;9.84;73.53;93578.66;5009016;28;20489;-65
2024/01/08 03:29:37;;;;;;;3.43;3.23;;;9.80;99.90;;;9.85;73.50;93587.34;5012610;28;20461;-61
2024/01/08 03:32:09;;;;;;;4.83;4.43;;;9.80;99.90;;;9.84;73.90;93588.38;5008814;28;20450;-61
2024/01/08 03:34:36;;;;;;;5.20;4.70;;;9.80;99.90;;;9.84;73.68;93596.25;5009013;28;20583;-61
2024/01/08 03:37:03;;;;;;;5.13;4.70;;;9.80;99.90;;;9.82;73.81;93592.94;5012745;28;20504;-61
2024/01/08 03:39:31;;;;;;;5.53;4.90;;;9.80;99.90;;;9.82;73.81;93596.41;5012858;28;20453;-61
2024/01/08 03:41:58;;;;;;;5.70;5.20;;;9.80;99.90;;;9.81;73.81;93600.00;5012689;28;20544;-60
2024/01/08 03:44:25;;;;;;;6.90;5.77;;;9.80;99.90;;;9.80;73.95;93602.81;5012571;28;20454;-62
2024/01/08 03:46:53;;;;;;;5.80;5.27;;;9.80;99.90;;;9.78;73.80;93605.59;5012464;28;20461;-65
2024/01/08 03:49:21;;;;;;;5.30;4.43;;;9.80;99.90;;;9.79;73.69;93603.78;5008489;28;20529;-64
2024/01/08 03:51:49;;;;;;;5.70;5.07;;;9.80;99.90;;;9.79;73.72;93611.66;5012400;28;20491;-64
2024/01/08 03:54:16;;;;;;;6.80;5.73;;;9.80;99.90;;;9.78;73.75;93617.91;5012346;28;20454;-65
2024/01/08 03:56:44;;;;;;;6.10;5.60;;;9.80;99.90;;;9.78;73.80;93615.28;5008705;28;20473;-61
2024/01/08 03:59:13;;;;;;;8.17;5.77;;;9.70;99.90;;;9.78;73.80;93626.59;5008757;28;20465;-60
2024/01/08 04:01:45;;;;;;;5.67;5.20;;;9.80;99.90;;;9.77;73.68;93624.16;5008835;28;20581;-59
2024/01/08 04:04:12;;;;;;;6.27;5.67;;;9.80;99.90;;;9.76;73.60;93633.00;5012297;28;20470;-62
2024/01/08 04:06:41;;;;;;;10.67;6.63;;;9.70;99.90;;;9.73;73.40;93639.41;5020717;28;20580;-61
2024/01/08 04:09:08;;;;;;;6.60;5.53;;;9.70;99.90;;;9.70;73.46;93642.38;5011910;28;20489;-65
2024/01/08 04:11:35;;;;;;;6.10;5.30;;;9.70;99.90;;;9.68;73.47;93650.41;5011750;28;21052;-64
2024/01/08 04:14:03;;;;;;;5.97;4.77;;;9.70;99.90;;;9.68;73.46;93660.91;5012155;28;20457;-62
2024/01/08 04:16:30;;;;;;;4.20;3.90;;;9.70;99.90;;;9.66;73.32;93660.25;5011896;28;20563;-62
2024/01/08 04:18:58;;;;;;;4.33;3.90;;;9.60;99.90;;;9.63;72.85;93657.13;5012230;28;20473;-66
2024/01/08 04:21:25;;;;;;;5.70;4.10;;;9.60;99.90;;;9.59;72.99;93666.31;5011713;28;20484;-65
2024/01/08 04:23:54;;;;;;;3.17;2.83;;;9.60;99.90;;;9.55;72.86;93665.00;5011874;28;20508;-61
2024/01/08 04:26:23;;;;;;;2.00;1.90;;;9.50;99.90;;;9.50;72.54;93671.56;5005879;28;20488;-62
2024/01/08 04:28:51;;;;;;;3.10;1.70;;;9.50;99.90;;;9.47;72.31;93671.88;5010208;28;20493;-65
2024/01/08 04:31:19;;;;;;;1.73;1.63;;;9.50;99.90;;;9.39;72.16;93674.50;5000193;28;20484;-63
2024/01/08 04:33:46;;;;;;;1.43;1.33;;;9.40;99.90;;;9.34;72.07;93682.03;5009196;28;20541;-65
2024/01/08 04:36:14;;;;;;;1.40;1.30;;;9.40;99.90;;;9.29;72.01;93690.38;5009852;28;21212;-66
2024/01/08 04:38:44;;;;;;;2.90;1.83;;;9.30;99.90;;;9.23;71.76;93683.16;5008820;28;20962;-62
2024/01/08 04:41:19;;;;;;;1.60;1.50;;;9.30;99.90;;;9.18;71.89;93693.31;5010715;28;20560;-61
2024/01/08 04:43:46;;;;;;;1.47;1.37;;;9.20;99.90;;;9.11;71.80;93689.72;5011338;28;20515;-62
2024/01/08 04:46:14;;;;;;;1.90;1.80;;;9.10;99.90;;;9.06;71.45;93702.47;5011017;28;20480;-65
2024/01/08 04:48:41;;;;;;;3.00;1.03;;;9.10;99.90;;;9.01;71.34;93717.88;5013300;28;20493;-65
2024/01/08 04:51:09;;;;;;;1.20;1.00;;;9.00;99.90;;;8.94;71.38;93715.88;5011274;28;20477;-66
2024/01/08 04:53:36;;;;;;;1.10;1.00;;;9.00;99.90;;;8.89;71.59;93719.94;5010855;28;20453;-67
2024/01/08 04:56:04;;;;;;;1.43;1.10;;;8.90;99.90;;;8.83;71.94;93734.53;5011645;28;20540;-67
2024/01/08 04:58:33;;;;;;;1.33;1.10;;;8.90;99.90;;;8.77;71.57;93740.41;5011372;28;20468;-69
2024/01/08 05:01:01;;;;;;;8.03;7.23;;;8.80;99.90;;;8.72;71.80;93743.50;5010349;28;20571;-62
2024/01/08 05:03:28;;;;;;;1.73;1.63;;;8.80;99.90;;;8.69;71.73;93745.56;5007709;28;20454;-62
2024/01/08 05:05:56;;;;;;;11.33;9.53;;;8.70;99.90;;;8.64;72.43;93745.25;5010790;28;20477;-62
2024/01/08 05:08:23;;;;;;;2.80;2.53;;;8.70;99.90;;;8.58;71.41;93747.50;5009807;28;20516;-62
2024/01/08 05:10:50;;;;;;;3.00;2.80;;;8.60;99.90;;;8.54;71.77;93758.47;5009934;28;20462;-62
2024/01/08 05:13:18;;;;;;;2.00;1.90;;;8.60;99.90;;;8.50;71.51;93751.88;5010269;28;20458;-61
2024/01/08 05:15:46;;;;;;;2.40;1.30;;;8.50;99.90;;;8.46;71.42;93761.84;5010552;28;20465;-61
2024/01/08 05:18:14;;;;;;;1.27;1.17;;;8.50;99.90;;;8.43;71.00;93767.38;5010151;28;20473;-61
2024/01/08 05:20:41;;;;;;;1.90;1.80;;;8.50;99.90;;;8.41;70.89;93766.69;5010216;28;20608;-61
2024/01/08 05:23:09;;;;;;;2.40;2.20;;;8.40;99.90;;;8.36;70.42;93772.38;5010588;28;20769;-62
2024/01/08 05:25:36;;;;;;;2.17;2.03;;;8.40;99.90;;;8.32;70.45;93780.69;5007976;28;20469;-61
2024/01/08 05:28:05;;;;;;;2.20;1.87;;;8.40;99.90;;;8.26;70.26;93788.22;5007056;28;20485;-66
2024/01/08 05:30:33;;;;;;;2.33;2.13;;;8.30;99.90;;;8.22;70.18;93784.22;5010495;28;20465;-66
2024/01/08 05:33:02;;;;;;;1.67;1.57;;;8.30;99.90;;;8.20;70.29;93793.25;5008816;28;20970;-66
2024/01/08 05:35:29;;;;;;;2.37;2.17;;;8.20;99.90;;;8.17;70.49;93794.34;5009746;28;20493;-65
2024/01/08 05:37:57;;;;;;;3.53;2.03;;;8.20;99.90;;;8.14;69.65;93799.09;5009569;28;21163;-61
2024/01/08 05:40:25;;;;;;;2.00;1.90;;;8.20;99.90;;;8.09;69.66;93799.53;5008685;28;20484;-61
2024/01/08 05:42:52;;;;;;;1.70;1.60;;;8.20;99.90;;;8.08;69.65;93805.75;5004212;28;20461;-66
2024/01/08 05:45:21;;;;;;;1.30;1.20;;;8.10;99.90;;;8.03;69.49;93808.81;5008965;28;21233;-61
2024/01/08 05:47:50;;;;;;;1.60;1.50;;;8.10;99.90;;;7.99;70.35;93814.50;5008746;28;20533;-62
2024/01/08 05:50:20;;;;;;;1.10;1.00;;;8.10;99.90;;;7.96;69.95;93820.84;5009646;28;20473;-61
2024/01/08 05:52:48;;;;;;;4.73;2.23;;;8.10;99.90;;;7.95;70.25;93826.22;5009836;28;20545;-67
2024/01/08 05:55:16;;;;;;;1.80;1.70;;;8.00;99.90;;;7.96;70.56;93835.75;5009029;28;20473;-62
2024/01/08 05:57:43;;;;;;;2.37;2.20;;;8.00;99.90;;;7.95;70.22;93847.19;5009735;28;20453;-62
2024/01/08 06:00:12;;;;;;;2.20;2.00;;;8.00;99.90;;;7.95;70.21;93853.25;5008988;28;20847;-62
2024/01/08 06:02:39;;;;;;;2.00;1.80;;;8.00;99.90;;;7.93;70.35;93849.13;5008952;28;20524;-61
2024/01/08 06:05:08;;;;;;;2.90;2.70;;;8.00;99.90;;;7.89;70.43;93849.44;5005740;28;20531;-62
2024/01/08 06:07:37;;;;;;;3.40;1.73;;;7.90;99.90;;;7.87;70.09;93861.84;5007738;28;20528;-63
2024/01/08 06:10:06;;;;;;;1.67;1.50;;;7.90;99.90;;;7.85;69.90;93863.81;5008478;28;20578;-63
2024/01/08 06:12:33;;;;;;;1.60;1.50;;;7.90;99.90;;;7.84;69.88;93870.00;5009496;28;20519;-63
2024/01/08 06:15:01;;;;;;;1.77;1.67;;;7.90;99.90;;;7.82;69.86;93874.56;5009511;28;20527;-63
2024/01/08 06:17:28;;;;;;;6.20;4.03;;;7.90;99.90;;;7.80;70.12;93871.25;5009828;28;20460;-66
2024/01/08 06:19:55;;;;;;;3.57;3.00;;;7.90;99.90;;;7.79;69.72;93877.47;5009701;28;21009;-65
2024/01/08 06:22:23;;;;;;;1.57;1.27;;;7.80;99.90;;;7.79;69.98;93881.88;5010148;28;20456;-64
2024/01/08 06:24:52;;;;;;;2.63;2.13;;;7.80;99.90;;;7.77;69.85;93884.63;5008830;28;20473;-65
2024/01/08 06:27:19;;;;;;;4.50;3.93;;;7.80;99.90;;;7.75;69.63;93883.97;5008776;28;20507;-63
2024/01/08 06:29:47;;;;;;;8.97;4.33;;;7.80;99.90;;;7.71;69.60;93887.84;5008943;28;20496;-62
2024/01/08 06:32:14;;;;;;;30.50;11.30;;;7.80;99.90;;;7.69;69.82;93884.56;5007778;28;20453;-63
2024/01/08 06:34:41;;;;;;;3.47;3.17;;;7.80;99.90;;;7.66;69.94;93890.91;5005435;28;20475;-63
2024/01/08 06:37:09;;;;;;;2.37;2.23;;;7.70;99.90;;;7.65;69.47;93891.06;5009508;28;20489;-67
2024/01/08 06:39:37;;;;;;;2.00;1.90;;;7.70;99.90;;;7.64;69.78;93899.88;5011513;28;20458;-67
2024/01/08 06:42:06;;;;;;;2.10;2.00;;;7.70;99.90;;;7.61;70.10;93906.22;5010625;28;20450;-63
2024/01/08 06:44:33;;;;;;;2.03;1.93;;;7.70;99.90;;;7.62;70.15;93910.50;5009886;28;20839;-66
2024/01/08 06:47:01;;;;;;;2.80;2.57;;;7.70;99.90;;;7.61;70.18;93915.88;5010011;28;20460;-63
2024/01/08 06:49:28;;;;;;;3.83;3.60;;;7.70;99.90;;;7.58;69.81;93921.41;5011336;28;20524;-66
2024/01/08 06:51:55;;;;;;;3.03;2.70;;;7.70;99.90;;;7.56;69.51;93924.16;5011852;28;20461;-65
2024/01/08 06:54:23;;;;;;;3.80;2.17;;;7.60;99.90;;;7.53;69.96;93930.50;5011397;28;20472;-64
2024/01/08 06:56:50;;;;;;;1.93;1.83;;;7.60;99.90;;;7.51;69.78;93948.16;5009360;28;20561;-66
2024/01/08 06:59:19;;;;;;;2.20;2.10;;;7.60;99.90;;;7.49;69.94;93936.97;5012804;28;20468;-66
2024/01/08 07:01:48;;;;;;;3.43;1.70;;;7.50;99.90;;;7.45;69.24;93943.50;5012106;28;20462;-63
2024/01/08 07:04:15;;;;;;;1.70;1.60;;;7.50;99.90;;;7.41;69.61;93949.97;5010261;28;20441;-62
2024/01/08 07:06:45;;;;;;;4.70;1.53;;;7.50;99.90;;;7.37;69.07;93956.44;5009295;28;20481;-63
2024/01/08 07:09:13;;;;;;;1.90;1.80;;;7.50;99.90;;;7.33;69.61;93960.34;5013114;28;20887;-67
2024/01/08 07:11:40;;;;;;;1.83;1.73;;;7.50;99.90;;;7.33;68.99;93965.56;5013505;28;21013;-65
2024/01/08 07:14:08;;;;;;;4.13;2.53;;;7.40;99.90;;;7.31;69.58;93972.69;5012816;28;21028;-66
2024/01/08 07:16:37;;;;;;;2.33;2.00;;;7.40;99.90;;;7.30;69.67;93966.66;5012852;28;21003;-63
2024/01/08 07:19:05;;;;;;;1.73;1.63;;;7.40;99.90;;;7.28;69.46;93971.22;5013072;28;20588;-63
2024/01/08 07:21:32;;;;;;;1.97;1.87;;;7.40;99.90;;;7.28;68.75;93984.28;5012554;28;20473;-66
2024/01/08 07:23:59;;;;;;;2.67;2.47;;;7.30;99.90;;;7.27;69.19;93984.44;5012661;28;20568;-66
2024/01/08 07:26:27;;;;;;;3.73;2.60;;;7.30;99.90;;;7.26;68.82;93995.84;5011265;28;21089;-65
2024/01/08 07:28:54;;;;;;;2.90;1.93;;;7.30;99.90;;;7.25;69.32;93996.81;5011979;28;20563;-66
2024/01/08 07:31:22;;;;;;;2.00;1.90;;;7.30;99.90;;;7.25;69.04;93999.44;5012716;28;20474;-66
2024/01/08 07:33:50;;;;;;;1.60;1.50;;;7.30;99.90;;;7.25;68.92;94000.28;5010753;28;20481;-66
2024/01/08 07:36:18;;;;;;;5.57;3.53;;;7.30;99.90;;;7.27;69.51;94018.44;5012239;28;20469;-63
2024/01/08 07:38:45;;;;;;;2.40;2.20;;;7.30;99.90;;;7.28;68.96;94014.84;5011827;28;20568;-66
2024/01/08 07:41:13;;;;;;;2.03;1.93;;;7.30;99.90;;;7.28;68.31;94022.69;5012143;28;20481;-65
2024/01/08 07:43:40;;;;;;;2.47;2.30;;;7.40;99.90;;;7.27;68.18;94027.09;5011685;28;20442;-63
2024/01/08 07:46:08;;;;;;;10.73;3.57;;;7.30;99.90;;;7.25;68.25;94030.81;5011190;28;20485;-65
2024/01/08 07:48:35;;;;;;;3.40;2.30;;;7.30;99.90;;;7.23;68.25;94030.94;5011645;28;21083;-64
2024/01/08 07:51:04;;;;;;;2.90;2.40;;;7.30;99.90;;;7.21;68.18;94039.91;5016798;28;20579;-64
2024/01/08 07:53:31;;;;;;;2.53;1.57;;;7.30;99.90;;;7.18;67.95;94044.44;5014452;28;20528;-63
2024/01/08 07:55:59;;;;;;;1.80;1.70;;;7.30;99.90;;;7.18;68.11;94039.22;5012582;28;20545;-62
2024/01/08 07:58:27;;;;;;;3.30;1.67;;;7.30;99.90;;;7.16;68.03;94049.00;5011716;28;20512;-63
2024/01/08 08:00:54;;;;;;;1.40;1.30;;;7.20;99.90;;;7.15;67.42;94056.97;5006558;28;20467;-62
2024/01/08 08:03:22;;;;;;;6.73;1.60;;;7.20;99.90;;;7.13;67.19;94062.34;5010341;28;20838;-63
2024/01/08 08:05:50;;;;;;;2.10;1.93;;;7.20;99.90;;;7.11;67.66;94073.91;5011728;28;21042;-66
2024/01/08 08:08:19;;;;;;;2.00;1.80;;;7.20;99.90;;;7.10;67.44;94067.84;5011671;28;20449;-63
2024/01/08 08:10:46;;;;;;;2.30;2.20;;;7.20;99.90;;;7.08;67.42;94080.25;5010654;28;20504;-64
2024/01/08 08:13:14;;;;;;;5.53;2.47;;;7.20;99.90;;;7.07;67.02;94088.25;5011818;28;20547;-67
2024/01/08 08:15:41;;;;;;;3.20;3.00;;;7.10;99.90;;;7.06;68.36;94082.16;5009435;28;20466;-63
2024/01/08 08:18:09;;;;;;;3.10;2.80;;;7.10;99.90;;;7.04;70.17;94088.50;5005771;28;20454;-65
2024/01/08 08:20:36;;;;;;;2.53;2.33;;;7.20;99.90;;;7.13;69.91;94093.72;5007591;28;20470;-66
2024/01/08 08:23:04;;;;;;;3.50;3.10;;;7.20;99.90;;;7.19;69.99;94094.97;5011378;28;20838;-65
2024/01/08 08:25:33;;;;;;;1.63;1.53;;;7.20;99.90;;;7.26;68.27;94095.25;5011350;28;20965;-65
2024/01/08 08:28:00;;;;;;;1.57;1.43;;;7.30;99.90;;;7.29;67.97;94102.81;5011863;28;20473;-65
2024/01/08 08:30:28;;;;;;;1.60;1.50;;;7.30;99.90;;;7.29;67.55;94102.81;5011415;28;20520;-65
2024/01/08 08:32:58;;;;;;;1.23;1.13;;;7.40;99.90;;;7.26;66.70;94101.28;5010271;28;20461;-66
2024/01/08 08:35:25;;;;;;;1.80;1.70;;;7.30;99.90;;;7.20;66.70;94107.06;5010682;28;20465;-65
2024/01/08 08:37:53;;;;;;;1.53;1.43;;;7.30;99.90;;;7.18;67.56;94112.44;5011112;28;20469;-65
2024/01/08 08:40:20;;;;;;;1.10;1.00;;;7.30;99.90;;;7.16;66.79;94118.78;5011358;28;20473;-67
2024/01/08 08:42:50;;;;;;;1.43;1.33;;;7.20;99.90;;;7.09;66.28;94118.50;5010954;28;20458;-64
2024/01/08 08:45:18;;;;;;;1.03;0.93;;;7.20;99.90;;;7.10;66.20;94130.63;5006889;28;20856;-64
2024/01/08 08:47:45;;;;;;;0.97;0.90;;;7.20;99.90;;;7.07;66.90;94125.66;5007687;28;20881;-63
2024/01/08 08:50:13;;;;;;;1.60;1.50;;;7.20;99.90;;;7.07;66.38;94130.88;5010024;28;20489;-63
2024/01/08 08:52:43;;;;;;;1.30;1.20;;;7.20;99.90;;;7.04;65.44;94128.56;5010369;28;20438;-63
2024/01/08 08:55:12;;;;;;;1.30;1.20;;;7.10;99.90;;;7.01;66.22;94131.44;5009796;28;20553;-64
2024/01/08 08:57:39;;;;;;;1.43;1.33;;;7.10;99.90;;;7.00;66.14;94137.63;5010636;28;20480;-63
2024/01/08 09:00:09;;;;;;;1.93;1.80;;;7.10;99.90;;;6.97;66.19;94135.28;5009951;28;21259;-68
2024/01/08 09:02:37;;;;;;;1.47;1.37;;;7.10;99.90;;;6.96;66.12;94139.69;5005236;28;20450;-65
2024/01/08 09:05:07;;;;;;;1.73;1.23;;;7.00;99.90;;;6.95;66.16;94131.97;5008094;28;21006;-64
2024/01/08 09:07:35;;;;;;;1.40;1.30;;;7.00;99.90;;;6.92;66.00;94142.72;5006363;28;20632;-65
2024/01/08 09:10:03;;;;;;;1.43;1.33;;;7.00;99.90;;;6.91;66.08;94133.19;5008189;28;20856;-64
2024/01/08 09:12:30;;;;;;;1.27;1.17;;;7.00;99.90;;;6.92;65.65;94142.72;5005009;28;20446;-65
2024/01/08 09:14:57;;;;;;;2.17;2.07;;;7.00;99.90;;;6.93;66.10;94139.97;5009494;28;20469;-65
2024/01/08 09:17:29;;;;;;;2.30;1.30;;;7.00;99.90;;;6.95;65.47;94143.25;5007321;28;20445;-65
2024/01/08 09:19:56;;;;;;;1.30;1.20;;;7.00;99.90;;;6.96;65.33;94138.88;5007174;28;21064;-65
2024/01/08 09:22:24;;;;;;;1.23;1.13;;;7.00;99.90;;;6.96;64.76;94144.91;5008743;28;20472;-65
2024/01/08 09:24:51;;;;;;;2.93;1.87;;;7.00;99.90;;;6.97;65.21;94150.97;5010539;28;20584;-63
2024/01/08 09:27:19;;;;;;;1.73;1.63;;;7.00;99.90;;;6.95;64.50;94151.09;5011314;28;20450;-65
2024/01/08 09:29:46;;;;;;;1.57;1.47;;;7.00;99.90;;;6.95;64.43;94152.91;5013419;28;20501;-65
2024/01/08 09:32:13;;;;;;;1.73;1.63;;;7.00;99.90;;;6.90;63.75;94152.47;5008627;28;20453;-64
2024/01/08 09:34:42;;;;;;;1.57;1.47;;;7.00;99.90;;;6.87;63.95;94157.97;5008082;28;20457;-65
2024/01/08 09:37:09;;;;;;;1.57;1.47;;;7.00;99.90;;;6.84;64.01;94156.44;5007109;28;20457;-65
2024/01/08 09:39:37;;;;;;;8.03;3.50;;;7.00;99.90;;;6.82;63.33;94159.19;5004523;28;20453;-67
2024/01/08 09:42:05;;;;;;;2.33;2.13;;;6.90;99.90;;;6.80;63.85;94155.91;5005817;28;20457;-66
2024/01/08 09:44:33;;;;;;;2.00;1.80;;;6.90;99.90;;;6.80;64.05;94157.66;5006200;28;20454;-65
2024/01/08 09:47:00;;;;;;;1.87;1.77;;;6.90;99.90;;;6.79;63.43;94158.66;5006395;28;20454;-64
2024/01/08 09:49:29;;;;;;;2.37;1.90;;;6.90;99.90;;;6.77;63.78;94153.56;5005535;28;20489;-65
2024/01/08 09:51:58;;;;;;;1.73;1.63;;;6.90;99.90;;;6.77;63.37;94155.31;5009876;28;20465;-65
2024/01/08 09:54:25;;;;;;;2.53;2.10;;;6.90;99.90;;;6.76;63.17;94151.91;5006184;28;20446;-64
2024/01/08 09:56:54;;;;;;;3.17;1.40;;;6.90;99.90;;;6.73;61.81;94157.41;5005483;28;20449;-65
2024/01/08 09:59:24;;;;;;;1.70;1.37;;;6.80;99.90;;;6.68;62.73;94159.59;5009947;28;20540;-66
2024/01/08 10:01:54;;;;;;;2.07;1.50;;;6.80;99.90;;;6.66;63.62;94158.06;5008332;28;20478;-65
2024/01/08 10:04:21;;;;;;;1.67;1.57;;;6.80;99.90;;;6.65;63.72;94172.94;5008800;28;20515;-65
2024/01/08 10:06:49;;;;;;;1.70;1.60;;;6.80;99.90;;;6.67;63.22;94170.19;5005131;28;20465;-66
2024/01/08 10:09:17;;;;;;;1.50;1.40;;;6.80;99.90;;;6.67;63.30;94173.59;5008755;28;21027;-66
2024/01/08 10:11:45;;;;;;;3.13;2.00;;;6.80;99.90;;;6.68;63.51;94167.44;5008807;28;20478;-64
2024/01/08 10:14:12;;;;;;;2.20;2.10;;;6.80;99.90;;;6.65;63.15;94165.09;5006506;28;20531;-65
2024/01/08 10:16:41;;;;;;;1.70;1.60;;;6.80;99.90;;;6.63;63.46;94173.06;5010318;28;20482;-65
2024/01/08 10:19:08;;;;;;;2.20;2.00;;;6.70;99.90;;;6.65;63.39;94172.94;5006672;28;20456;-64
2024/01/08 10:21:35;;;;;;;1.57;1.40;;;6.70;99.90;;;6.68;63.11;94169.19;5006129;28;20484;-65
2024/01/08 10:24:09;;;;;;;1.40;1.03;;;6.80;99.90;;;6.69;63.16;94169.06;5004680;28;20977;-65
2024/01/08 10:26:39;;;;;;;1.27;1.17;;;6.80;99.90;;;6.70;62.00;94170.72;5009714;28;20527;-65
2024/01/08 10:29:12;;;;;;;1.80;1.70;;;6.80;99.90;;;6.71;63.15;94172.38;5009838;28;20453;-65
2024/01/08 10:31:39;;;;;;;1.70;1.60;;;6.80;99.90;;;6.72;62.63;94168.78;5002100;28;20494;-66